Terminal Aerodrome Forecast
Issued by NWS

Current Version | Previous Version | Text Only | Print | Product List | Glossary Off
Versions: 1 2 3 4 5 6 7 8 9 10 11 12 13 14 15 16 17 18 19 20 21 22 23 24

484
FTUS41 KILN 151746 AAB
TAFLUK
TAF AMD
KLUK 151746Z 1518/1618 29004KT P6SM BKN045
     FM160100 VRB03KT P6SM FEW150
     FM160700 00000KT 1SM BR SCT200
     FM161400 00000KT P6SM SCT050
     FM161700 00000KT P6SM BKN050=

USA.gov is the U.S. government's official web portal to all federal, state and local government web resources and services.